Time;durP1;ratioP1;P1;durP2;ratioP2;P2;SDS_P1;SDS_P2;PMS_P1;PMS_P2;Temp;Humidity;BMP_temperature;BMP_pressure;BME280_temperature;BME280_humidity;BME280_pressure;Samples;Min_cycle;Max_cycle;Signal;HPM_P1;HPM_P2
2023/06/25 00:02:41;;;;;;;11.27;6.87;;;;;;;18.27;100.00;101493.50;6050085;28;20030;-65
2023/06/25 00:05:36;;;;;;;13.60;6.85;;;;;;;18.00;100.00;101496.69;6049899;28;20038;-65
2023/06/25 00:08:31;;;;;;;11.80;8.00;;;;;;;17.85;100.00;101473.25;6048792;28;20374;-65
2023/06/25 00:11:26;;;;;;;11.93;7.27;;;;;;;18.26;100.00;101468.50;6033360;28;20029;-65
2023/06/25 00:14:22;;;;;;;11.40;7.10;;;;;;;18.25;100.00;101466.00;6039664;28;20145;-65
2023/06/25 00:17:17;;;;;;;9.80;6.70;;;;;;;18.34;100.00;101475.69;6030050;28;20277;-65
2023/06/25 00:20:15;;;;;;;10.27;7.23;;;;;;;18.32;100.00;101469.63;6049802;28;20072;-65
2023/06/25 00:23:10;;;;;;;10.88;6.68;;;;;;;18.29;100.00;101478.09;6045135;28;20129;-65
2023/06/25 00:26:06;;;;;;;11.10;7.10;;;;;;;18.59;100.00;101487.16;6049250;28;20034;-65
2023/06/25 00:29:03;;;;;;;11.57;7.43;;;;;;;18.60;100.00;101475.38;6049931;28;20484;-65
2023/06/25 00:31:58;;;;;;;10.98;7.20;;;;;;;18.56;100.00;101477.59;6049648;28;20032;-66
2023/06/25 00:34:58;;;;;;;12.33;7.20;;;;;;;18.41;100.00;101463.22;6049326;28;20025;-65
2023/06/25 00:37:57;;;;;;;12.70;7.57;;;;;;;18.28;100.00;101487.13;6036668;28;20019;-65
2023/06/25 00:40:52;;;;;;;13.05;8.85;;;;;;;18.35;100.00;101474.66;6041990;28;20438;-65
2023/06/25 00:43:48;;;;;;;12.13;8.27;;;;;;;18.00;100.00;101469.84;6048806;28;20026;-65
2023/06/25 00:46:43;;;;;;;11.13;7.23;;;;;;;17.96;100.00;101464.00;6034995;28;20033;-65
2023/06/25 00:49:43;;;;;;;10.13;7.13;;;;;;;18.05;100.00;101459.41;6042563;28;20100;-65
2023/06/25 00:52:39;;;;;;;11.30;7.03;;;;;;;17.98;100.00;101464.66;6029224;28;20026;-65
2023/06/25 00:55:34;;;;;;;12.65;7.78;;;;;;;18.24;100.00;101475.91;6041355;28;20476;-65
2023/06/25 00:58:30;;;;;;;12.18;7.72;;;;;;;18.14;100.00;101467.25;6051731;28;20057;-65
2023/06/25 01:01:29;;;;;;;13.43;8.70;;;;;;;17.88;100.00;101471.25;6036939;28;20041;-65
2023/06/25 01:04:27;;;;;;;13.93;8.40;;;;;;;17.63;100.00;101457.94;6043429;28;20022;-65
2023/06/25 01:07:24;;;;;;;12.70;8.27;;;;;;;17.63;100.00;101463.31;6054066;28;20032;-65
2023/06/25 01:10:20;;;;;;;13.60;8.40;;;;;;;17.63;100.00;101476.72;6043527;28;20026;-65
2023/06/25 01:13:15;;;;;;;15.13;8.85;;;;;;;17.23;100.00;101449.97;6049981;28;20062;-65
2023/06/25 01:16:10;;;;;;;14.07;9.03;;;;;;;17.15;100.00;101463.38;6041125;28;20038;-65
2023/06/25 01:19:06;;;;;;;13.47;9.13;;;;;;;17.27;100.00;101475.44;6052324;28;20055;-65
2023/06/25 01:22:03;;;;;;;15.98;9.02;;;;;;;17.12;100.00;101466.44;6053925;28;20037;-64
2023/06/25 01:24:59;;;;;;;13.45;8.48;;;;;;;17.03;100.00;101465.59;6053112;28;20684;-64
2023/06/25 01:27:54;;;;;;;14.40;8.32;;;;;;;17.07;100.00;101455.34;6053586;28;20025;-65
2023/06/25 01:30:52;;;;;;;14.70;8.17;;;;;;;17.06;100.00;101475.13;6044601;28;20045;-65
2023/06/25 01:33:47;;;;;;;12.95;8.60;;;;;;;17.07;100.00;101466.06;6034779;28;20454;-65
2023/06/25 01:36:42;;;;;;;14.27;9.40;;;;;;;16.96;100.00;101469.13;6053703;28;20044;-65
2023/06/25 01:39:38;;;;;;;14.30;8.40;;;;;;;16.83;100.00;101445.50;6053577;28;20030;-65
2023/06/25 01:42:34;;;;;;;12.60;8.40;;;;;;;16.94;100.00;101455.03;6053224;28;20180;-65
2023/06/25 01:45:29;;;;;;;15.15;8.55;;;;;;;17.08;100.00;101447.16;6030504;28;20030;-66
2023/06/25 01:48:25;;;;;;;14.87;8.60;;;;;;;16.96;100.00;101458.41;6053086;28;20034;-65
2023/06/25 01:51:22;;;;;;;14.55;8.93;;;;;;;16.79;100.00;101448.69;6028095;28;20053;-64
2023/06/25 01:54:18;;;;;;;16.10;9.30;;;;;;;16.57;100.00;101443.03;6039438;28;20105;-64
2023/06/25 01:57:13;;;;;;;16.13;9.13;;;;;;;16.54;100.00;101438.00;6042571;28;20048;-64
2023/06/25 02:00:11;;;;;;;13.65;9.52;;;;;;;16.50;100.00;101452.66;6042673;28;20018;-64
2023/06/25 02:03:06;;;;;;;14.13;9.98;;;;;;;16.52;100.00;101447.97;6037956;28;20466;-64
2023/06/25 02:06:01;;;;;;;17.13;10.53;;;;;;;16.41;100.00;101442.13;6042467;28;20092;-64
2023/06/25 02:08:57;;;;;;;16.80;9.67;;;;;;;16.48;100.00;101443.97;6027079;28;20054;-65
2023/06/25 02:11:52;;;;;;;15.45;9.18;;;;;;;16.38;100.00;101435.28;6040290;28;20025;-65
2023/06/25 02:14:47;;;;;;;17.17;10.60;;;;;;;16.32;100.00;101419.88;6042308;28;20152;-64
2023/06/25 02:17:42;;;;;;;14.10;9.20;;;;;;;16.44;100.00;101433.78;6043520;28;20485;-64
2023/06/25 02:20:38;;;;;;;15.03;8.30;;;;;;;16.32;100.00;101417.19;6052889;28;20026;-64
2023/06/25 02:23:33;;;;;;;19.43;8.90;;;;;;;16.46;100.00;101429.09;6051651;28;20029;-65
2023/06/25 02:26:29;;;;;;;13.63;8.17;;;;;;;16.47;100.00;101431.56;6047552;28;20469;-64
2023/06/25 02:29:24;;;;;;;15.85;9.20;;;;;;;16.41;100.00;101420.72;6052443;28;20030;-64
2023/06/25 02:32:19;;;;;;;14.30;8.77;;;;;;;16.35;100.00;101416.03;6052114;28;20046;-64
2023/06/25 02:35:15;;;;;;;13.17;8.53;;;;;;;16.30;100.00;101407.66;6051778;28;20026;-65
2023/06/25 02:38:10;;;;;;;16.08;9.85;;;;;;;16.27;100.00;101411.50;6067400;28;20104;-64
2023/06/25 02:41:06;;;;;;;18.00;9.07;;;;;;;16.34;100.00;101423.22;6049642;28;20032;-65
2023/06/25 02:44:01;;;;;;;15.90;9.33;;;;;;;16.15;100.00;101399.44;6030217;28;20276;-65
2023/06/25 02:46:56;;;;;;;15.67;9.20;;;;;;;16.21;100.00;101422.03;6051841;28;20054;-64
2023/06/25 02:49:52;;;;;;;16.65;10.15;;;;;;;16.14;100.00;101411.16;6045683;28;20469;-66
2023/06/25 02:52:47;;;;;;;17.40;8.40;;;;;;;16.16;100.00;101406.47;6038557;28;20034;-65
2023/06/25 02:55:42;;;;;;;13.07;8.40;;;;;;;16.24;100.00;101411.81;6044316;28;20057;-65
2023/06/25 02:58:38;;;;;;;13.53;8.60;;;;;;;16.26;100.00;101409.81;6040025;28;20045;-65
2023/06/25 03:01:33;;;;;;;15.20;8.53;;;;;;;16.42;100.00;101417.84;6051408;28;20080;-64
2023/06/25 03:04:28;;;;;;;14.67;8.47;;;;;;;16.52;100.00;101426.56;6048808;28;20042;-64
2023/06/25 03:07:23;;;;;;;16.40;7.83;;;;;;;16.52;100.00;101413.16;6033420;28;20026;-64
2023/06/25 03:10:21;;;;;;;13.33;7.17;;;;;;;16.62;100.00;101415.72;6026685;28;20534;-65
2023/06/25 03:13:17;;;;;;;11.43;6.60;;;;;;;16.43;100.00;101411.50;6032638;28;20037;-65
2023/06/25 03:16:12;;;;;;;10.80;7.80;;;;;;;16.48;100.00;101409.16;6038641;28;20402;-65
2023/06/25 03:19:07;;;;;;;14.50;6.83;;;;;;;17.04;100.00;101410.16;6050981;28;20032;-65
2023/06/25 03:22:03;;;;;;;13.20;7.43;;;;;;;17.17;100.00;101407.78;6032326;28;20022;-65
2023/06/25 03:24:58;;;;;;;12.52;7.18;;;;;;;16.75;100.00;101407.16;6050229;28;20064;-65
2023/06/25 03:27:53;;;;;;;14.30;6.73;;;;;;;16.57;100.00;101405.53;6050414;28;20420;-65
2023/06/25 03:30:48;;;;;;;11.30;6.50;;;;;;;16.79;100.00;101395.13;6034880;28;20034;-65
2023/06/25 03:33:44;;;;;;;11.13;6.50;;;;;;;17.21;100.00;101417.97;6047661;28;20038;-64
2023/06/25 03:36:39;;;;;;;12.63;6.80;;;;;;;17.28;100.00;101412.78;6040381;28;20060;-65
2023/06/25 03:39:34;;;;;;;10.27;6.43;;;;;;;17.27;100.00;101395.00;6050795;28;20277;-65
2023/06/25 03:42:30;;;;;;;10.30;6.87;;;;;;;17.20;100.00;101402.06;6050792;28;20034;-65
2023/06/25 03:45:25;;;;;;;11.87;6.87;;;;;;;17.46;100.00;101391.06;6025028;28;20034;-65
2023/06/25 03:48:20;;;;;;;10.73;6.47;;;;;;;17.56;100.00;101403.28;6023360;28;20474;-65
2023/06/25 03:51:17;;;;;;;11.73;6.80;;;;;;;17.33;100.00;101396.16;6026828;28;20027;-65
2023/06/25 03:54:12;;;;;;;12.02;6.43;;;;;;;17.09;100.00;101402.44;6049278;28;20031;-65
2023/06/25 03:57:07;;;;;;;9.77;6.17;;;;;;;16.79;100.00;101360.28;6040147;28;20029;-65
2023/06/25 04:00:04;;;;;;;11.73;6.97;;;;;;;16.90;100.00;101395.63;6039201;28;20031;-65
2023/06/25 04:02:59;;;;;;;12.68;6.88;;;;;;;16.82;100.00;101398.31;6021253;28;20037;-65
2023/06/25 04:05:55;;;;;;;13.68;7.22;;;;;;;16.89;100.00;101398.44;6046121;28;20034;-65
2023/06/25 04:08:50;;;;;;;11.43;6.47;;;;;;;16.92;100.00;101396.28;6050409;28;20129;-65
2023/06/25 04:11:45;;;;;;;10.30;6.80;;;;;;;16.89;100.00;101387.72;6038071;28;20409;-64
2023/06/25 04:14:40;;;;;;;16.40;6.70;;;;;;;16.96;100.00;101394.91;6043657;28;20172;-65
2023/06/25 04:17:36;;;;;;;11.20;6.07;;;;;;;17.02;100.00;101382.66;6041374;28;20038;-65
2023/06/25 04:20:31;;;;;;;11.97;6.40;;;;;;;17.12;100.00;101391.38;6035801;28;20042;-65
2023/06/25 04:23:26;;;;;;;12.10;6.47;;;;;;;17.41;100.00;101405.00;6049326;28;20365;-65
2023/06/25 04:26:22;;;;;;;10.17;5.50;;;;;;;17.34;100.00;101390.63;6049234;28;20461;-65
2023/06/25 04:29:17;;;;;;;10.75;5.85;;;;;;;17.61;100.00;101384.84;6043093;28;20036;-65
2023/06/25 04:32:12;;;;;;;9.50;5.50;;;;;;;17.81;100.00;101391.44;6050183;28;20040;-65
2023/06/25 04:35:08;;;;;;;11.53;5.30;;;;;;;17.87;100.00;101394.44;6032843;28;20034;-65
2023/06/25 04:38:03;;;;;;;9.40;5.85;;;;;;;18.14;100.00;101399.28;6036499;28;20421;-65
2023/06/25 04:40:59;;;;;;;8.83;4.93;;;;;;;18.24;100.00;101391.81;6046334;28;20481;-65
2023/06/25 04:43:55;;;;;;;11.38;5.72;;;;;;;18.34;100.00;101400.50;6029416;28;20042;-65
2023/06/25 04:46:50;;;;;;;9.07;5.13;;;;;;;18.59;100.00;101387.75;6049833;28;20477;-65
2023/06/25 04:49:45;;;;;;;10.77;5.27;;;;;;;18.91;97.88;101392.81;6044039;28;20110;-64
2023/06/25 04:52:41;;;;;;;8.93;4.80;;;;;;;19.13;95.42;101391.06;6025698;28;20041;-64
2023/06/25 04:55:36;;;;;;;8.67;4.77;;;;;;;19.62;93.50;101392.19;6048946;28;20140;-64
2023/06/25 04:58:31;;;;;;;7.28;4.18;;;;;;;19.66;92.14;101385.38;6046784;28;20026;-65
2023/06/25 05:01:27;;;;;;;7.07;4.57;;;;;;;19.52;91.66;101386.22;6049677;28;20038;-65
2023/06/25 05:04:22;;;;;;;11.13;5.28;;;;;;;19.28;93.89;101399.94;6048706;28;20068;-64
2023/06/25 05:07:17;;;;;;;10.20;5.20;;;;;;;19.18;94.91;101397.56;6049486;28;20029;-65
2023/06/25 05:10:15;;;;;;;9.17;5.67;;;;;;;19.22;97.15;101388.06;6035197;28;20393;-65
2023/06/25 05:13:10;;;;;;;10.52;5.35;;;;;;;19.42;93.79;101396.44;6035990;28;20041;-64
2023/06/25 05:16:06;;;;;;;9.63;4.93;;;;;;;19.36;93.83;101394.47;6048909;28;20045;-64
2023/06/25 05:19:01;;;;;;;13.50;4.82;;;;;;;19.17;92.20;101392.34;6049154;28;20273;-69
2023/06/25 05:21:56;;;;;;;8.53;4.97;;;;;;;19.46;91.41;101395.03;6049486;28;20030;-67
2023/06/25 05:24:52;;;;;;;9.57;4.80;;;;;;;19.51;90.67;101376.50;6048503;28;20037;-67
2023/06/25 05:27:48;;;;;;;10.82;5.22;;;;;;;19.51;90.40;101389.97;6049007;28;20044;-67
2023/06/25 05:30:43;;;;;;;9.75;5.00;;;;;;;19.54;90.43;101370.75;6049386;28;20322;-67
2023/06/25 05:33:39;;;;;;;8.10;4.80;;;;;;;19.74;90.16;101382.56;6045930;28;20035;-67
2023/06/25 05:36:34;;;;;;;10.37;4.77;;;;;;;20.02;90.63;101385.38;6049183;28;20040;-67
2023/06/25 05:39:29;;;;;;;10.60;5.20;;;;;;;20.50;85.65;101391.88;6049179;28;20029;-67
2023/06/25 05:42:25;;;;;;;10.60;4.67;;;;;;;20.74;84.63;101376.13;6026396;28;20744;-67
2023/06/25 05:45:21;;;;;;;8.83;4.90;;;;;;;20.62;82.90;101371.47;6052945;28;20299;-67
2023/06/25 05:48:16;;;;;;;8.68;4.82;;;;;;;21.00;83.04;101383.56;6053255;28;20038;-67
2023/06/25 05:51:11;;;;;;;8.50;4.67;;;;;;;22.37;77.11;101382.47;6036908;28;20038;-67
2023/06/25 05:54:06;;;;;;;11.70;5.40;;;;;;;22.65;75.64;101382.31;6054640;28;20026;-67
2023/06/25 05:57:02;;;;;;;8.00;4.70;;;;;;;24.26;66.40;101362.19;6054244;28;20026;-67
2023/06/25 05:59:57;;;;;;;8.18;4.22;;;;;;;24.47;62.60;101368.28;6053230;28;20725;-67
2023/06/25 06:02:53;;;;;;;7.38;3.72;;;;;;;23.59;65.08;101368.16;6044045;28;20031;-67
2023/06/25 06:05:48;;;;;;;6.97;4.30;;;;;;;25.00;60.78;101357.81;6042951;28;20378;-67
2023/06/25 06:08:43;;;;;;;10.40;4.10;;;;;;;25.11;57.09;101363.28;6041153;28;20018;-67
2023/06/25 06:11:38;;;;;;;7.10;3.70;;;;;;;25.91;56.07;101369.44;6028474;28;20253;-67
2023/06/25 06:14:34;;;;;;;5.87;3.60;;;;;;;27.13;51.43;101366.81;6046055;28;20064;-67
2023/06/25 06:17:29;;;;;;;6.53;3.70;;;;;;;25.57;56.04;101379.13;6041438;28;20041;-67
2023/06/25 06:20:25;;;;;;;6.53;3.27;;;;;;;25.27;55.49;101364.59;6044177;28;20096;-67
2023/06/25 06:23:20;;;;;;;5.60;3.40;;;;;;;24.78;58.25;101365.50;6051966;28;20029;-67
2023/06/25 06:26:16;;;;;;;5.33;3.40;;;;;;;24.71;59.89;101376.41;6052481;28;20108;-65
2023/06/25 06:29:11;;;;;;;5.05;3.67;;;;;;;25.72;60.07;101370.53;6052612;28;20026;-65
2023/06/25 06:32:07;;;;;;;5.77;3.60;;;;;;;25.53;56.42;101364.31;6051055;28;20125;-65
2023/06/25 06:35:02;;;;;;;4.85;3.08;;;;;;;25.61;56.82;101365.88;6048989;28;20022;-65
2023/06/25 06:37:57;;;;;;;4.85;3.58;;;;;;;25.49;55.54;101359.56;6043364;28;20026;-66
2023/06/25 06:40:53;;;;;;;8.10;3.10;;;;;;;25.73;57.36;101362.19;6052364;28;20030;-65
2023/06/25 06:43:48;;;;;;;6.23;3.50;;;;;;;25.43;57.96;101355.84;6051552;28;20025;-65
2023/06/25 06:46:44;;;;;;;6.60;3.13;;;;;;;26.05;55.23;101362.75;6047782;28;20279;-67
2023/06/25 06:49:39;;;;;;;6.40;3.58;;;;;;;25.86;55.69;101359.28;6047661;28;20022;-65
2023/06/25 06:52:34;;;;;;;5.47;3.20;;;;;;;25.74;55.03;101371.13;6037212;28;20030;-65
2023/06/25 06:55:29;;;;;;;5.73;3.20;;;;;;;25.85;56.54;101371.19;6051403;28;20536;-65
2023/06/25 06:58:25;;;;;;;7.23;3.53;;;;;;;25.52;55.66;101373.50;6049276;28;20036;-65
2023/06/25 07:01:20;;;;;;;6.47;3.40;;;;;;;25.90;56.31;101368.59;6045348;28;20037;-65
2023/06/25 07:04:15;;;;;;;8.87;3.73;;;;;;;25.55;56.90;101367.63;6048399;28;20104;-65
2023/06/25 07:07:11;;;;;;;7.60;3.63;;;;;;;25.59;56.68;101357.97;6051286;28;20076;-64
2023/06/25 07:10:06;;;;;;;6.83;3.30;;;;;;;26.54;55.29;101356.16;6051772;28;20428;-66
2023/06/25 07:13:01;;;;;;;4.97;3.20;;;;;;;26.80;52.78;101361.16;6045926;28;20025;-65
2023/06/25 07:15:57;;;;;;;5.10;3.30;;;;;;;26.96;53.00;101370.53;6023816;28;20049;-65
2023/06/25 07:18:53;;;;;;;6.27;3.10;;;;;;;26.30;54.89;101354.47;6051416;28;20021;-65
2023/06/25 07:21:49;;;;;;;6.53;3.20;;;;;;;26.95;53.59;101374.31;6051109;28;20257;-65
2023/06/25 07:24:44;;;;;;;4.78;3.25;;;;;;;27.02;51.88;101367.66;6029282;28;20068;-65
2023/06/25 07:27:39;;;;;;;5.70;3.07;;;;;;;27.29;52.13;101354.34;6043076;28;20025;-65
2023/06/25 07:30:36;;;;;;;5.43;2.80;;;;;;;27.21;52.11;101368.34;6040206;28;20023;-65
2023/06/25 07:33:31;;;;;;;5.45;3.33;;;;;;;26.95;51.41;101366.13;6050521;28;20040;-66
2023/06/25 07:36:26;;;;;;;6.57;3.47;;;;;;;26.92;51.72;101356.56;6040879;28;20034;-65
2023/06/25 07:39:29;;;;;;;5.17;3.20;;;;;;;26.87;53.32;101356.44;6037030;28;20113;-65
2023/06/25 07:42:24;;;;;;;5.22;2.97;;;;;;;26.44;55.32;101353.19;6040215;28;20026;-65
2023/06/25 07:45:20;;;;;;;5.03;3.47;;;;;;;26.50;52.96;101360.38;6043289;28;20370;-65
2023/06/25 07:48:15;;;;;;;5.07;3.27;;;;;;;26.63;51.87;101364.81;6048796;28;20277;-65
2023/06/25 07:51:10;;;;;;;6.50;3.77;;;;;;;27.50;51.34;101344.75;6031706;28;20044;-65
2023/06/25 07:54:06;;;;;;;6.63;3.23;;;;;;;27.70;50.08;101336.94;6040396;28;20277;-66
2023/06/25 07:57:01;;;;;;;5.53;3.07;;;;;;;27.54;49.77;101356.81;6038127;28;20571;-65
2023/06/25 07:59:56;;;;;;;4.83;3.40;;;;;;;27.24;51.57;101351.53;6022020;28;20061;-65
2023/06/25 08:02:51;;;;;;;7.97;3.47;;;;;;;27.09;51.79;101348.47;6032528;28;20277;-65
2023/06/25 08:05:47;;;;;;;9.47;3.30;;;;;;;26.80;50.65;101349.47;6049477;28;20037;-65
2023/06/25 08:08:42;;;;;;;7.63;3.53;;;;;;;26.89;51.01;101354.28;6050354;28;20418;-65
2023/06/25 08:11:37;;;;;;;4.73;3.40;;;;;;;27.01;50.42;101341.50;6044545;28;20397;-65
2023/06/25 08:14:33;;;;;;;5.00;3.30;;;;;;;26.94;51.41;101350.84;6049461;28;20049;-66
2023/06/25 08:17:28;;;;;;;5.73;3.00;;;;;;;27.32;49.98;101350.31;6030238;28;20046;-65
2023/06/25 08:20:23;;;;;;;5.37;3.43;;;;;;;27.38;49.38;101347.47;6049989;28;20273;-65
2023/06/25 08:23:19;;;;;;;8.47;3.50;;;;;;;28.08;48.04;101349.94;6046642;28;20045;-66
2023/06/25 08:26:15;;;;;;;5.22;3.03;;;;;;;27.61;48.57;101341.97;6026303;28;20459;-66
2023/06/25 08:29:11;;;;;;;6.22;3.30;;;;;;;27.69;48.52;101344.28;6028257;28;20049;-65
2023/06/25 08:32:07;;;;;;;5.75;3.25;;;;;;;27.54;46.16;101330.38;6036035;28;20481;-65
2023/06/25 08:35:02;;;;;;;5.22;3.10;;;;;;;27.78;45.89;101342.00;6013087;28;20069;-66
2023/06/25 08:37:57;;;;;;;5.37;3.27;;;;;;;27.98;44.32;101342.41;6043875;28;20026;-66
2023/06/25 08:40:53;;;;;;;5.90;3.23;;;;;;;27.90;44.19;101325.59;6020109;28;20034;-66
2023/06/25 08:43:48;;;;;;;5.65;3.38;;;;;;;28.41;45.88;101338.25;6034217;28;20474;-66
2023/06/25 08:46:47;;;;;;;6.37;3.43;;;;;;;27.86;44.85;101333.44;6034285;28;20446;-66
2023/06/25 08:49:43;;;;;;;4.65;3.00;;;;;;;27.95;43.87;101334.72;6032605;28;20508;-66
2023/06/25 08:52:39;;;;;;;6.63;3.75;;;;;;;27.80;45.15;101328.97;6024449;28;20026;-66
2023/06/25 08:55:35;;;;;;;6.73;3.67;;;;;;;27.53;45.73;101323.25;6031837;28;20034;-65
2023/06/25 08:58:31;;;;;;;4.70;3.22;;;;;;;27.49;48.11;101329.44;6025544;28;20748;-65
2023/06/25 09:01:26;;;;;;;6.40;3.13;;;;;;;28.00;45.93;101333.97;6027442;28;20133;-66
2023/06/25 09:04:22;;;;;;;5.38;3.65;;;;;;;27.88;45.54;101331.31;6022893;28;20401;-66
2023/06/25 09:07:19;;;;;;;5.97;3.38;;;;;;;27.81;47.17;101311.53;6041199;28;20026;-66
2023/06/25 09:10:15;;;;;;;5.85;3.30;;;;;;;28.10;46.71;101320.56;6029093;28;20493;-66
2023/06/25 09:13:10;;;;;;;6.25;3.30;;;;;;;28.21;45.86;101309.53;6028394;28;20469;-66
2023/06/25 09:16:07;;;;;;;6.30;4.10;;;;;;;28.11;43.78;101298.47;6037206;28;20091;-66
2023/06/25 09:19:03;;;;;;;6.60;3.72;;;;;;;28.40;44.10;101306.59;6039518;28;20030;-66
2023/06/25 09:21:58;;;;;;;5.53;3.40;;;;;;;27.27;44.65;101298.44;6050955;28;20490;-66
2023/06/25 09:24:54;;;;;;;5.45;3.75;;;;;;;27.77;43.94;101297.59;6051536;28;20041;-66
2023/06/25 09:27:49;;;;;;;5.27;3.40;;;;;;;28.01;43.27;101281.06;6054095;28;20406;-66
2023/06/25 09:30:45;;;;;;;5.57;3.50;;;;;;;28.07;43.72;101296.50;6052428;28;20088;-66
2023/06/25 09:33:40;;;;;;;7.00;3.50;;;;;;;27.78;44.54;101299.22;6052928;28;20787;-65
2023/06/25 09:36:36;;;;;;;5.20;3.60;;;;;;;28.21;41.68;101286.91;6049509;28;20153;-66
2023/06/25 09:39:31;;;;;;;4.75;3.22;;;;;;;28.29;42.60;101270.94;6034316;28;20477;-65
2023/06/25 09:42:27;;;;;;;5.13;3.20;;;;;;;28.48;42.27;101285.16;6027333;28;20038;-65
2023/06/25 09:45:24;;;;;;;6.75;3.75;;;;;;;28.81;43.98;101284.28;6032642;28;20474;-66
2023/06/25 09:48:23;;;;;;;4.45;3.00;;;;;;;28.38;41.86;101281.41;6035756;28;20030;-66
2023/06/25 09:51:20;;;;;;;5.97;4.18;;;;;;;27.74;43.13;101261.78;6012042;28;20042;-66
2023/06/25 09:54:18;;;;;;;6.07;3.03;;;;;;;27.87;43.81;101269.66;6028301;28;20022;-66
2023/06/25 09:57:16;;;;;;;6.65;3.50;;;;;;;28.18;44.18;101277.28;6036327;28;20060;-65
2023/06/25 10:00:12;;;;;;;5.03;3.00;;;;;;;27.97;40.59;101258.06;6049522;28;20030;-66
2023/06/25 10:03:09;;;;;;;4.70;3.03;;;;;;;28.27;40.29;101272.25;6027696;28;20026;-65
2023/06/25 10:06:04;;;;;;;5.05;3.00;;;;;;;28.23;42.01;101274.66;6049192;28;20034;-65
2023/06/25 10:09:02;;;;;;;5.28;2.88;;;;;;;28.64;39.70;101269.84;6045253;28;20041;-65
2023/06/25 10:11:57;;;;;;;6.40;3.42;;;;;;;28.47;40.78;101264.38;6043454;28;20062;-65
2023/06/25 10:14:54;;;;;;;5.05;3.28;;;;;;;28.46;40.96;101256.44;6029226;28;20536;-66
2023/06/25 10:17:52;;;;;;;5.40;3.63;;;;;;;28.79;40.16;101268.16;6037396;28;20377;-66
2023/06/25 10:20:48;;;;;;;4.47;3.10;;;;;;;28.68;41.06;101254.59;6022369;28;20603;-66
2023/06/25 10:23:52;;;;;;;5.30;3.03;;;;;;;28.90;40.31;101252.72;6040120;28;20037;-66
2023/06/25 10:26:52;;;;;;;5.90;3.20;;;;;;;29.08;40.82;101254.31;6041375;28;20034;-66
2023/06/25 10:29:48;;;;;;;5.45;3.05;;;;;;;28.84;41.69;101238.16;6033737;28;20466;-66
2023/06/25 10:32:43;;;;;;;4.10;3.33;;;;;;;28.81;40.38;101241.41;6012573;28;20038;-65
2023/06/25 10:35:40;;;;;;;8.67;3.43;;;;;;;28.89;39.68;101229.25;6039293;28;20026;-66
2023/06/25 10:38:36;;;;;;;4.85;3.05;;;;;;;29.30;40.92;101239.56;6018706;28;20113;-66
2023/06/25 10:41:32;;;;;;;5.15;3.45;;;;;;;29.02;41.82;101245.25;6026718;28;20031;-66
2023/06/25 10:44:27;;;;;;;6.95;3.85;;;;;;;29.13;41.47;101236.09;6037927;28;20041;-65
2023/06/25 10:47:22;;;;;;;4.90;3.40;;;;;;;28.33;42.48;101233.88;6052076;28;20112;-65
2023/06/25 10:50:18;;;;;;;4.80;3.20;;;;;;;27.99;42.73;101220.50;6034370;28;20027;-65
2023/06/25 10:53:16;;;;;;;4.93;3.00;;;;;;;28.42;43.16;101228.00;6018380;28;20097;-66
2023/06/25 10:56:11;;;;;;;7.07;3.15;;;;;;;28.95;42.17;101220.00;6015577;28;20629;-66
2023/06/25 10:59:06;;;;;;;4.95;3.30;;;;;;;29.06;40.65;101218.22;6036311;28;20045;-66
2023/06/25 11:02:15;;;;;;;7.47;3.20;;;;;;;29.30;40.42;101225.06;6031282;28;20384;-66
2023/06/25 11:05:11;;;;;;;5.05;2.97;;;;;;;29.19;38.99;101206.91;6022615;28;20030;-65
2023/06/25 11:08:09;;;;;;;7.63;5.65;;;;;;;28.54;42.16;101213.16;6040698;28;20034;-66
2023/06/25 11:11:04;;;;;;;5.72;3.22;;;;;;;27.53;44.58;101208.00;6028575;28;20485;-67
2023/06/25 11:14:00;;;;;;;5.00;3.40;;;;;;;28.25;43.22;101209.75;6025934;28;20034;-66
2023/06/25 11:16:55;;;;;;;6.60;3.40;;;;;;;28.38;42.46;101210.47;6039181;28;20277;-66
2023/06/25 11:19:52;;;;;;;5.77;3.17;;;;;;;27.88;43.58;101194.13;6038314;28;20065;-65
2023/06/25 11:22:48;;;;;;;4.78;2.40;;;;;;;27.87;43.60;101193.31;6016616;28;20413;-67
2023/06/25 11:25:43;;;;;;;5.78;3.75;;;;;;;28.59;43.72;101202.31;6039361;28;20041;-66
2023/06/25 11:28:39;;;;;;;6.10;3.40;;;;;;;28.25;43.71;101189.81;6033380;28;20034;-67
2023/06/25 11:31:44;;;;;;;4.17;2.97;;;;;;;28.17;40.87;101187.53;6039305;28;20026;-66
2023/06/25 11:34:45;;;;;;;6.30;3.38;;;;;;;28.29;43.38;101199.19;6037260;28;20382;-66
2023/06/25 11:37:44;;;;;;;5.70;3.00;;;;;;;28.35;42.96;101195.41;6024587;28;20030;-66
2023/06/25 11:40:41;;;;;;;7.30;3.38;;;;;;;28.53;42.82;101191.59;6041738;28;20362;-66
2023/06/25 11:43:37;;;;;;;4.85;2.63;;;;;;;29.26;41.94;101172.03;6024747;28;20045;-66
2023/06/25 11:46:32;;;;;;;6.87;3.20;;;;;;;29.67;40.83;101187.72;6029936;28;20042;-66
2023/06/25 11:49:27;;;;;;;5.70;3.20;;;;;;;30.06;40.26;101175.47;6045733;28;20026;-66
2023/06/25 11:52:23;;;;;;;4.63;3.10;;;;;;;29.97;40.79;101188.00;6028871;28;20032;-67
2023/06/25 11:55:21;;;;;;;8.35;3.70;;;;;;;29.71;38.77;101183.38;6018204;28;20690;-67
2023/06/25 11:58:16;;;;;;;5.40;3.65;;;;;;;29.02;41.38;101171.47;6038704;28;20018;-66
2023/06/25 12:01:11;;;;;;;4.07;2.83;;;;;;;29.33;42.36;101169.91;6040112;28;20354;-65
2023/06/25 12:04:07;;;;;;;7.45;4.13;;;;;;;29.06;43.73;101167.13;6044796;28;20453;-64
2023/06/25 12:07:02;;;;;;;5.77;3.57;;;;;;;29.49;43.52;101168.94;6030365;28;20039;-66
2023/06/25 12:09:58;;;;;;;4.65;2.83;;;;;;;29.96;39.95;101160.91;6031603;28;20744;-66
2023/06/25 12:12:54;;;;;;;4.70;3.20;;;;;;;29.83;39.45;101151.25;6041279;28;20065;-66
2023/06/25 12:15:50;;;;;;;5.53;3.20;;;;;;;30.16;38.18;101147.34;6023410;28;20284;-66
2023/06/25 12:18:45;;;;;;;5.70;3.40;;;;;;;30.44;38.55;101148.91;6026668;28;20033;-66
2023/06/25 12:21:40;;;;;;;4.83;3.27;;;;;;;29.74;40.67;101138.25;6036402;28;20364;-65
2023/06/25 12:24:36;;;;;;;6.57;3.13;;;;;;;30.41;38.51;101133.81;6036725;28;20030;-67
2023/06/25 12:27:31;;;;;;;7.20;3.97;;;;;;;31.10;38.55;101136.25;6049987;28;20034;-67
2023/06/25 12:30:26;;;;;;;5.80;3.50;;;;;;;31.44;35.59;101133.84;6037940;28;20057;-65
2023/06/25 12:33:22;;;;;;;4.80;3.57;;;;;;;31.19;38.09;101123.69;6041568;28;20300;-66
2023/06/25 12:36:17;;;;;;;6.17;3.30;;;;;;;30.81;39.40;101118.63;6036394;28;20380;-66
2023/06/25 12:39:13;;;;;;;5.57;3.87;;;;;;;31.23;37.30;101111.06;6046473;28;20268;-66
2023/06/25 12:42:08;;;;;;;6.07;3.58;;;;;;;30.30;38.78;101120.34;6033382;28;20045;-67
2023/06/25 12:45:04;;;;;;;4.70;3.03;;;;;;;29.03;41.23;101123.09;6017313;28;20031;-66
2023/06/25 12:47:59;;;;;;;6.47;3.60;;;;;;;29.64;38.72;101103.47;6032162;28;20465;-67
2023/06/25 12:50:54;;;;;;;6.10;3.90;;;;;;;30.75;39.33;101111.50;6024139;28;20057;-66
2023/06/25 12:53:50;;;;;;;5.67;3.10;;;;;;;30.93;37.96;101113.78;6018349;28;20378;-66
2023/06/25 12:56:45;;;;;;;4.80;2.87;;;;;;;31.37;37.84;101120.38;6039740;28;20469;-67
2023/06/25 12:59:40;;;;;;;7.27;3.80;;;;;;;30.62;38.19;101102.69;6049232;28;20613;-66
2023/06/25 13:02:35;;;;;;;7.07;3.90;;;;;;;30.49;37.54;101100.44;6031206;28;20030;-65
2023/06/25 13:05:31;;;;;;;7.30;3.33;;;;;;;30.19;39.12;101116.72;6042376;28;20292;-66
2023/06/25 13:08:27;;;;;;;6.30;3.27;;;;;;;30.00;41.43;101102.63;6017657;28;20041;-66
2023/06/25 13:11:22;;;;;;;4.55;3.15;;;;;;;30.84;40.32;101093.44;6030237;28;20531;-67
2023/06/25 13:14:17;;;;;;;4.00;3.00;;;;;;;30.52;38.30;101086.22;6035432;28;20042;-68
2023/06/25 13:17:13;;;;;;;4.20;2.97;;;;;;;31.29;35.88;101085.28;6037651;28;20044;-65
2023/06/25 13:20:08;;;;;;;5.40;3.40;;;;;;;31.16;37.72;101075.72;6030965;28;20483;-66
2023/06/25 13:23:04;;;;;;;5.90;3.13;;;;;;;31.83;36.50;101090.22;6025077;28;21631;-67
2023/06/25 13:25:59;;;;;;;5.37;3.20;;;;;;;32.00;36.72;101082.50;6030593;28;20032;-68
2023/06/25 13:28:54;;;;;;;6.17;3.10;;;;;;;32.34;34.59;101065.09;6035499;28;20266;-68
2023/06/25 13:31:50;;;;;;;5.10;3.20;;;;;;;32.55;35.66;101071.34;6033721;28;20436;-66